Time;durP1;ratioP1;P1;durP2;ratioP2;P2;SDS_P1;SDS_P2;PMS_P1;PMS_P2;Temp;Humidity;BMP_temperature;BMP_pressure;BME280_temperature;BME280_humidity;BME280_pressure;Samples;Min_cycle;Max_cycle;Signal;HPM_P1;HPM_P2
2022/08/08 00:00:07;;;;;;;2.83;2.63;;;;;;;20.91;59.37;96012.19;4883633;29;20718;-79
2022/08/08 00:02:42;;;;;;;2.83;2.63;;;;;;;20.86;59.36;95998.97;4878862;29;20211;-80
2022/08/08 00:05:17;;;;;;;5.75;3.10;;;;;;;20.90;59.33;96005.34;4894449;29;20198;-81
2022/08/08 00:07:52;;;;;;;3.65;3.08;;;;;;;20.84;59.46;95995.78;4883755;29;20290;-81
2022/08/08 00:10:22;;;;;;;2.95;2.67;;;;;;;20.84;59.46;95996.59;4880636;29;20337;-82
2022/08/08 00:12:55;;;;;;;3.20;2.90;;;;;;;20.88;59.23;96004.78;4881837;29;20231;-82
2022/08/08 00:15:27;;;;;;;3.30;2.55;;;;;;;20.82;59.49;95992.63;4895942;29;20786;-82
2022/08/08 00:17:59;;;;;;;3.58;2.50;;;;;;;20.82;59.12;95996.03;4901221;29;20203;-82
2022/08/08 00:20:32;;;;;;;3.67;2.55;;;;;;;20.79;59.33;96000.91;4898601;29;20230;-82
2022/08/08 00:23:04;;;;;;;2.83;2.55;;;;;;;20.74;59.34;95996.41;4895260;29;20235;-82
2022/08/08 00:25:36;;;;;;;2.95;2.75;;;;;;;20.68;59.17;95992.88;4881151;29;20211;-82
2022/08/08 00:28:06;;;;;;;3.33;2.70;;;;;;;20.56;60.08;95992.09;4883515;29;20279;-82
2022/08/08 00:30:37;;;;;;;3.63;2.92;;;;;;;20.50;60.18;95992.19;4884612;29;20564;-82
2022/08/08 00:33:08;;;;;;;3.03;2.80;;;;;;;20.48;60.82;95996.88;4888423;29;20258;-82
2022/08/08 00:35:44;;;;;;;3.13;2.90;;;;;;;20.49;61.47;95995.84;4904326;29;20235;-82
2022/08/08 00:38:26;;;;;;;2.90;2.70;;;;;;;20.52;61.69;95995.38;4900079;29;20195;-82
2022/08/08 00:41:37;;;;;;;3.10;2.80;;;;;;;20.50;61.66;95994.81;4884216;29;20203;-82
2022/08/08 00:44:24;;;;;;;3.03;2.55;;;;;;;20.53;62.07;95987.31;4894972;29;20253;-82
2022/08/08 00:47:15;;;;;;;3.63;3.25;;;;;;;20.51;62.04;95986.75;4903392;29;20206;-82
2022/08/08 00:50:07;;;;;;;3.00;2.70;;;;;;;20.50;62.62;95984.34;4888524;29;20659;-81
2022/08/08 00:52:52;;;;;;;4.03;3.05;;;;;;;20.43;62.92;96000.16;4890968;29;20210;-82
2022/08/08 00:55:51;;;;;;;3.22;2.85;;;;;;;20.32;63.37;95998.31;4904113;29;20211;-82
2022/08/08 00:58:41;;;;;;;3.13;2.88;;;;;;;20.35;63.10;96001.28;4891061;29;20260;-81
2022/08/08 01:01:16;;;;;;;4.30;3.35;;;;;;;20.31;63.57;96002.75;4851209;29;20268;-81
2022/08/08 01:04:09;;;;;;;3.05;2.75;;;;;;;20.33;63.41;96000.72;4896209;29;20278;-82
2022/08/08 01:07:00;;;;;;;2.95;2.75;;;;;;;20.29;63.63;95996.94;4901422;29;20671;-82
2022/08/08 01:09:59;;;;;;;3.40;3.10;;;;;;;20.21;64.22;96004.31;4900747;29;20227;-82
2022/08/08 01:12:46;;;;;;;3.10;2.90;;;;;;;20.18;64.28;95995.13;4881978;29;20207;-82
2022/08/08 01:15:57;;;;;;;3.50;3.00;;;;;;;20.00;65.14;96000.47;4883901;29;20207;-81
2022/08/08 01:19:25;;;;;;;5.25;3.40;;;;;;;19.96;65.50;95994.88;4861182;29;20212;-82
2022/08/08 01:22:16;;;;;;;3.17;2.97;;;;;;;19.99;65.33;95998.84;4844899;29;20196;-82
2022/08/08 01:24:57;;;;;;;3.17;2.83;;;;;;;20.05;64.95;95997.94;4886097;29;20228;-82
2022/08/08 01:27:57;;;;;;;2.97;2.78;;;;;;;20.06;64.76;95999.53;4893601;29;20214;-82
2022/08/08 01:31:11;;;;;;;3.13;2.90;;;;;;;19.98;64.50;96002.50;4896602;29;20223;-82
2022/08/08 01:33:57;;;;;;;3.38;2.97;;;;;;;20.02;63.85;95995.78;4866915;29;20712;-82
2022/08/08 01:36:50;;;;;;;3.35;3.13;;;;;;;20.02;63.98;95993.94;4883874;29;20279;-82
2022/08/08 01:39:28;;;;;;;2.92;2.70;;;;;;;20.10;63.19;96005.13;4901325;29;20254;-81
2022/08/08 01:42:04;;;;;;;2.65;2.45;;;;;;;20.11;63.31;95994.44;4888020;29;20208;-82
2022/08/08 01:44:53;;;;;;;3.00;2.80;;;;;;;20.08;63.08;96002.72;4883196;29;20753;-82
2022/08/08 01:47:30;;;;;;;2.95;2.65;;;;;;;19.95;63.65;96001.13;4897859;29;20282;-82
2022/08/08 01:50:08;;;;;;;2.80;2.60;;;;;;;19.89;64.23;96007.25;4901937;29;20231;-82
2022/08/08 01:52:45;;;;;;;3.22;3.03;;;;;;;19.91;64.43;96007.00;4883933;29;20203;-82
2022/08/08 01:55:17;;;;;;;3.03;2.80;;;;;;;19.87;64.25;96008.47;4890516;29;20230;-82
2022/08/08 01:57:52;;;;;;;3.10;2.90;;;;;;;19.87;64.18;96011.09;4900240;29;20207;-82
2022/08/08 02:00:22;;;;;;;3.40;3.10;;;;;;;19.80;64.53;96015.63;4901664;29;20218;-82
2022/08/08 02:03:22;;;;;;;3.05;2.83;;;;;;;19.82;64.69;96016.22;4893603;29;20715;-82
2022/08/08 02:05:59;;;;;;;3.25;2.80;;;;;;;19.94;63.62;96017.03;4883335;29;20211;-82
2022/08/08 02:08:39;;;;;;;3.00;2.80;;;;;;;19.88;64.45;96012.69;4895007;29;20223;-81
2022/08/08 02:11:23;;;;;;;3.00;2.80;;;;;;;19.79;64.13;96014.84;4894511;29;20342;-82
2022/08/08 02:13:57;;;;;;;3.38;3.08;;;;;;;19.71;64.76;96006.50;4884351;29;20231;-81
2022/08/08 02:16:28;;;;;;;3.35;3.05;;;;;;;19.65;65.41;96010.81;4892275;29;20230;-82
2022/08/08 02:19:02;;;;;;;3.15;2.85;;;;;;;19.66;65.41;96017.63;4901472;29;20227;-82
2022/08/08 02:24:27;;;;;;;3.75;2.83;;;;;;;19.70;64.49;96018.78;4883752;29;20241;-82
2022/08/08 02:27:01;;;;;;;3.22;2.95;;;;;;;19.70;64.85;96020.59;4901592;29;20207;-82
2022/08/08 02:29:38;;;;;;;3.13;2.92;;;;;;;19.76;65.05;96019.72;4900055;29;20230;-82
2022/08/08 02:32:26;;;;;;;2.92;2.72;;;;;;;19.79;64.68;96016.66;4882972;29;20599;-82
2022/08/08 02:35:09;;;;;;;3.30;3.00;;;;;;;19.74;64.67;96022.53;4888239;29;20227;-82
2022/08/08 02:37:50;;;;;;;3.10;2.80;;;;;;;19.71;65.06;96016.97;4902883;29;20294;-82
2022/08/08 02:40:25;;;;;;;3.00;2.72;;;;;;;19.70;64.60;96016.16;4883669;29;20771;-82
2022/08/08 02:43:22;;;;;;;3.42;2.90;;;;;;;19.64;65.02;96022.28;4882521;29;20235;-82
2022/08/08 02:46:18;;;;;;;3.13;2.90;;;;;;;19.68;65.26;96023.44;4881577;29;20207;-82
2022/08/08 02:49:18;;;;;;;3.35;3.05;;;;;;;19.63;65.30;96029.31;4896786;29;20234;-80
2022/08/08 02:52:04;;;;;;;3.78;2.95;;;;;;;19.61;65.28;96039.22;4895842;29;20211;-81
2022/08/08 02:54:54;;;;;;;3.22;2.92;;;;;;;19.50;66.04;96034.72;4882101;29;20243;-81
2022/08/08 02:58:02;;;;;;;3.30;3.00;;;;;;;19.42;66.11;96031.59;4881806;29;20433;-82
2022/08/08 03:00:48;;;;;;;4.07;3.25;;;;;;;19.17;67.27;96032.50;4880979;29;20220;-81
2022/08/08 03:03:53;;;;;;;3.42;3.13;;;;;;;19.10;67.91;96029.16;4899082;29;20239;-82
2022/08/08 03:07:01;;;;;;;3.40;3.20;;;;;;;19.12;68.05;96032.34;4900128;29;20195;-82
2022/08/08 03:10:03;;;;;;;3.70;3.28;;;;;;;19.20;67.51;96026.84;4900485;29;20239;-82
2022/08/08 03:13:15;;;;;;;3.58;3.35;;;;;;;19.29;67.47;96032.53;4888389;29;20217;-81
2022/08/08 03:16:07;;;;;;;3.70;3.40;;;;;;;19.32;67.10;96032.09;4887270;29;20199;-82
2022/08/08 03:18:44;;;;;;;3.50;3.13;;;;;;;19.36;66.80;96025.44;4899880;29;20353;-81
2022/08/08 03:21:10;;;;;;;3.72;3.42;;;;;;;19.30;66.95;96026.31;4890470;29;20204;-82
2022/08/08 03:23:37;;;;;;;5.20;3.40;;;;;;;19.23;67.64;96028.22;4881165;29;20239;-81
2022/08/08 03:26:04;;;;;;;3.85;3.50;;;;;;;19.17;67.63;96021.25;4889858;29;20199;-81
2022/08/08 03:28:35;;;;;;;4.00;3.60;;;;;;;19.07;68.84;96026.19;4899678;29;20258;-82
2022/08/08 03:33:16;;;;;;;3.40;3.20;;;;;;;18.97;68.92;96030.13;4883822;29;20260;-82
2022/08/08 03:33:48;;;;;;;3.13;2.83;;;;;;;19.03;68.11;96018.00;4880444;29;20230;-81
2022/08/08 03:36:15;;;;;;;3.58;3.38;;;;;;;19.11;68.34;96024.72;4895665;29;20203;-82
2022/08/08 03:38:47;;;;;;;3.63;3.42;;;;;;;18.93;68.88;96025.53;4919573;29;20226;-82
2022/08/08 03:41:14;;;;;;;3.72;3.42;;;;;;;18.98;68.26;96030.91;4885585;29;20251;-82
2022/08/08 03:43:40;;;;;;;3.70;3.40;;;;;;;18.90;69.31;96034.59;4893740;29;20275;-82
2022/08/08 03:46:07;;;;;;;4.00;3.70;;;;;;;18.87;69.39;96035.03;4884771;29;20208;-84
2022/08/08 03:48:34;;;;;;;3.35;3.05;;;;;;;19.02;72.16;96033.88;4891262;29;20238;-83
2022/08/08 03:51:00;;;;;;;4.03;3.63;;;;;;;19.33;70.49;96034.50;4900475;29;20209;-83
2022/08/08 03:53:27;;;;;;;3.53;3.22;;;;;;;19.71;70.18;96037.88;4896467;29;20239;-83
2022/08/08 03:55:54;;;;;;;3.20;2.90;;;;;;;19.94;68.79;96040.56;4895778;29;20258;-81
2022/08/08 03:58:24;;;;;;;4.03;3.00;;;;;;;20.11;67.89;96036.25;4879282;29;20208;-83
2022/08/08 04:00:52;;;;;;;3.75;3.00;;;;;;;20.30;67.39;96029.13;4879454;29;20204;-83
2022/08/08 04:03:19;;;;;;;4.57;3.60;;;;;;;20.38;66.09;96035.88;4879760;29;20804;-82
2022/08/08 04:05:46;;;;;;;2.97;2.78;;;;;;;20.49;65.71;96033.25;4897001;29;20635;-83
2022/08/08 04:08:17;;;;;;;5.80;3.00;;;;;;;20.55;64.67;96031.56;4878929;29;20211;-83
2022/08/08 04:10:47;;;;;;;3.55;3.25;;;;;;;20.58;64.06;96036.34;4877505;29;20231;-83
2022/08/08 04:13:15;;;;;;;9.27;3.00;;;;;;;20.70;64.09;96031.91;4880427;29;20283;-82
2022/08/08 04:15:42;;;;;;;3.20;3.00;;;;;;;20.80;63.21;96039.16;4896396;29;20206;-83
2022/08/08 04:18:08;;;;;;;3.40;2.65;;;;;;;20.78;62.20;96044.66;4880173;29;20255;-83
2022/08/08 04:20:35;;;;;;;2.83;2.63;;;;;;;20.85;62.39;96047.91;4878129;29;20232;-83
2022/08/08 04:23:01;;;;;;;4.20;3.10;;;;;;;20.88;62.11;96051.91;4894121;29;20230;-83
2022/08/08 04:25:27;;;;;;;3.33;3.03;;;;;;;20.86;61.82;96054.75;4895235;29;20587;-83
2022/08/08 04:27:54;;;;;;;4.38;2.83;;;;;;;20.96;62.06;96052.38;4883290;29;20199;-85
2022/08/08 04:30:22;;;;;;;3.47;3.17;;;;;;;20.79;61.82;96055.88;4901618;29;20231;-84
2022/08/08 04:32:48;;;;;;;3.17;2.90;;;;;;;20.87;61.88;96066.81;4900847;29;20235;-84
2022/08/08 04:35:15;;;;;;;3.17;2.53;;;;;;;20.95;61.69;96065.69;4919878;29;20213;-80
2022/08/08 04:37:41;;;;;;;3.05;2.83;;;;;;;21.12;61.25;96065.78;4923264;29;20316;-78
2022/08/08 04:40:09;;;;;;;3.08;2.75;;;;;;;21.28;60.51;96065.88;4912273;29;20719;-80
2022/08/08 04:42:36;;;;;;;2.85;2.40;;;;;;;21.45;59.89;96076.41;4883605;29;20218;-79
2022/08/08 04:45:03;;;;;;;3.70;3.00;;;;;;;21.53;59.18;96072.66;4895473;29;20209;-80
2022/08/08 04:47:31;;;;;;;4.70;2.90;;;;;;;21.58;59.32;96080.59;4899055;29;20226;-80
2022/08/08 04:49:57;;;;;;;4.38;3.25;;;;;;;21.64;59.36;96077.03;4899457;29;20293;-79
2022/08/08 04:52:24;;;;;;;4.45;3.38;;;;;;;21.48;58.63;96081.19;4897709;29;20277;-82
2022/08/08 04:54:50;;;;;;;3.65;3.35;;;;;;;21.19;59.40;96077.69;4896243;29;20729;-82
2022/08/08 04:57:17;;;;;;;4.10;3.80;;;;;;;20.82;60.40;96085.03;4899023;29;20219;-84
2022/08/08 04:59:44;;;;;;;7.07;3.78;;;;;;;20.63;61.15;96081.72;4901531;29;20219;-82
2022/08/08 05:02:10;;;;;;;4.18;3.88;;;;;;;20.55;61.71;96076.84;4901208;29;20234;-82
2022/08/08 05:04:38;;;;;;;3.67;3.38;;;;;;;20.44;62.18;96085.47;4899967;29;20234;-82
2022/08/08 05:07:04;;;;;;;4.20;3.70;;;;;;;20.24;63.36;96092.78;4900502;29;20207;-82
2022/08/08 05:09:31;;;;;;;4.03;3.72;;;;;;;20.21;63.28;96088.78;4900163;29;20714;-82
2022/08/08 05:11:57;;;;;;;4.00;3.70;;;;;;;20.21;63.69;96088.78;4900251;29;20239;-82
2022/08/08 05:14:24;;;;;;;5.30;4.00;;;;;;;20.07;64.56;96090.03;4902722;29;20979;-82
2022/08/08 05:16:50;;;;;;;5.95;4.22;;;;;;;20.05;64.77;96099.09;4904644;29;20601;-82
2022/08/08 05:19:17;;;;;;;4.30;3.90;;;;;;;20.12;64.74;96102.44;4905006;29;20231;-82
2022/08/08 05:21:45;;;;;;;14.48;6.88;;;;;;;20.08;66.09;96099.47;4904230;29;20801;-82
2022/08/08 05:24:11;;;;;;;8.70;5.13;;;;;;;19.96;65.59;96109.09;4905099;29;20243;-81
2022/08/08 05:26:40;;;;;;;6.45;4.68;;;;;;;19.87;65.21;96105.97;4903670;29;20235;-82
2022/08/08 05:29:07;;;;;;;4.47;4.07;;;;;;;19.91;65.80;96095.88;4903668;29;20606;-82
2022/08/08 05:31:34;;;;;;;4.80;4.40;;;;;;;20.01;64.24;96096.94;4902692;29;20203;-82
2022/08/08 05:34:00;;;;;;;16.00;14.35;;;;;;;20.01;63.83;96098.78;4902876;29;20655;-82
2022/08/08 05:36:30;;;;;;;20.10;18.20;;;;;;;20.16;63.46;96091.31;4902998;29;20218;-82
2022/08/08 05:38:58;;;;;;;14.88;13.45;;;;;;;20.16;63.51;96100.97;4902900;29;20228;-82
2022/08/08 05:41:25;;;;;;;13.85;12.55;;;;;;;20.24;63.87;96101.44;4904975;29;20275;-82
2022/08/08 05:43:59;;;;;;;5.53;5.10;;;;;;;20.21;61.94;96104.47;4904134;29;20234;-82
2022/08/08 05:46:27;;;;;;;4.32;3.53;;;;;;;20.25;60.76;96097.78;4903193;29;20207;-82
2022/08/08 05:48:54;;;;;;;6.80;3.47;;;;;;;20.17;60.41;96099.94;4904675;29;20948;-82
2022/08/08 05:51:21;;;;;;;5.22;3.30;;;;;;;20.12;61.10;96099.81;4904238;29;20258;-82
2022/08/08 05:53:47;;;;;;;3.40;3.20;;;;;;;20.22;61.44;96106.09;4903805;29;20768;-82
2022/08/08 05:56:16;;;;;;;3.38;3.03;;;;;;;20.27;60.23;96110.66;4904107;29;20796;-82
2022/08/08 05:58:43;;;;;;;3.05;2.75;;;;;;;20.32;59.85;96105.56;4903624;29;20231;-82
2022/08/08 06:01:13;;;;;;;3.38;3.08;;;;;;;20.20;59.39;96109.97;4902279;29;20289;-82
2022/08/08 06:03:42;;;;;;;3.05;2.80;;;;;;;20.16;59.33;96111.44;4902678;29;20241;-81
2022/08/08 06:06:09;;;;;;;3.22;2.60;;;;;;;20.14;59.85;96116.06;4904964;29;20314;-82
2022/08/08 06:08:37;;;;;;;3.38;3.08;;;;;;;20.08;59.10;96117.75;4904389;29;20291;-82
2022/08/08 06:11:05;;;;;;;7.25;6.63;;;;;;;20.06;59.97;96113.78;4905494;29;20226;-82
2022/08/08 06:13:33;;;;;;;8.25;7.45;;;;;;;20.04;59.23;96116.59;4901804;29;20313;-82
2022/08/08 06:15:59;;;;;;;4.88;3.38;;;;;;;20.11;59.53;96114.69;4901788;29;20239;-82
2022/08/08 06:18:28;;;;;;;3.58;3.28;;;;;;;20.18;59.77;96123.25;4901263;29;20210;-82
2022/08/08 06:20:57;;;;;;;11.23;5.13;;;;;;;20.24;59.16;96122.34;4900771;29;20198;-85
2022/08/08 06:23:24;;;;;;;4.55;3.67;;;;;;;20.28;59.04;96126.13;4901507;29;20291;-82
2022/08/08 06:26:01;;;;;;;4.20;3.80;;;;;;;20.36;59.22;96127.63;4902935;29;20202;-82
2022/08/08 06:28:31;;;;;;;5.38;3.25;;;;;;;20.38;58.86;96120.38;4904452;29;20675;-82
2022/08/08 06:31:01;;;;;;;6.22;3.20;;;;;;;20.44;59.49;96126.50;4902805;29;20223;-82
2022/08/08 06:33:36;;;;;;;4.10;3.30;;;;;;;20.39;58.74;96135.06;4905578;29;20259;-83
2022/08/08 06:36:04;;;;;;;3.50;3.20;;;;;;;20.35;59.13;96137.28;4908981;29;20274;-83
2022/08/08 06:38:35;;;;;;;4.40;3.75;;;;;;;20.29;59.85;96132.16;4908141;29;20243;-83
2022/08/08 06:41:06;;;;;;;6.07;4.03;;;;;;;20.35;59.63;96133.88;4906669;29;20262;-82
2022/08/08 06:43:36;;;;;;;7.03;3.88;;;;;;;20.45;59.81;96135.97;4907208;29;20263;-82
2022/08/08 06:46:05;;;;;;;4.20;3.75;;;;;;;20.54;59.25;96137.25;4908208;29;20789;-82
2022/08/08 06:48:32;;;;;;;6.90;4.38;;;;;;;20.54;58.85;96135.41;4907654;29;20257;-83
2022/08/08 06:50:59;;;;;;;3.75;3.45;;;;;;;20.54;59.15;96139.84;4906970;29;20227;-83
2022/08/08 06:53:27;;;;;;;4.20;3.80;;;;;;;20.56;59.04;96138.63;4907397;29;20310;-83
2022/08/08 06:55:54;;;;;;;4.07;3.67;;;;;;;20.59;59.16;96142.59;4907434;29;20634;-83
2022/08/08 06:58:20;;;;;;;4.50;3.70;;;;;;;20.62;59.24;96147.38;4906246;29;20207;-83
2022/08/08 07:00:49;;;;;;;4.20;3.90;;;;;;;20.63;58.88;96146.34;4903587;29;20215;-82
2022/08/08 07:03:28;;;;;;;4.40;4.10;;;;;;;20.87;59.07;96150.59;4904011;29;20242;-81
2022/08/08 07:05:55;;;;;;;4.47;4.10;;;;;;;20.93;58.27;96149.69;4908733;29;20215;-81
2022/08/08 07:08:29;;;;;;;5.00;4.60;;;;;;;21.08;58.24;96149.22;4909440;29;20218;-82
2022/08/08 07:10:59;;;;;;;4.60;4.20;;;;;;;21.17;57.43;96154.91;4901332;29;20254;-83
2022/08/08 07:13:36;;;;;;;4.70;4.13;;;;;;;21.17;57.42;96155.69;4898416;29;20259;-84
2022/08/08 07:16:05;;;;;;;5.75;3.75;;;;;;;21.21;57.02;96154.25;4899031;29;20199;-84
2022/08/08 07:18:42;;;;;;;6.03;3.60;;;;;;;21.31;57.11;96157.09;4907232;29;20226;-84
2022/08/08 07:21:13;;;;;;;3.72;3.42;;;;;;;21.32;56.17;96160.53;4906465;29;20202;-84
2022/08/08 07:23:48;;;;;;;5.85;3.72;;;;;;;21.44;56.31;96155.25;4908057;29;20230;-84
2022/08/08 07:26:16;;;;;;;3.58;3.28;;;;;;;21.62;56.16;96145.41;4909444;29;20261;-84
2022/08/08 07:28:43;;;;;;;3.70;3.40;;;;;;;21.76;55.39;96156.44;4908075;29;20278;-84
2022/08/08 07:31:10;;;;;;;4.30;3.55;;;;;;;21.69;55.23;96155.78;4908683;29;20643;-84
2022/08/08 07:33:40;;;;;;;3.55;3.25;;;;;;;21.78;54.99;96161.44;4908619;29;20305;-84
2022/08/08 07:36:08;;;;;;;4.85;4.13;;;;;;;21.91;55.03;96158.56;4908503;29;20214;-84
2022/08/08 07:38:37;;;;;;;3.53;3.28;;;;;;;21.93;54.92;96167.00;4908922;29;20235;-84
2022/08/08 07:41:04;;;;;;;3.75;3.38;;;;;;;22.11;54.14;96176.53;4908127;29;20223;-84
2022/08/08 07:43:32;;;;;;;6.15;4.00;;;;;;;22.32;53.96;96165.38;4908307;29;20263;-84
2022/08/08 07:45:59;;;;;;;4.38;3.92;;;;;;;22.43;53.65;96166.34;4908908;29;20230;-83
2022/08/08 07:48:26;;;;;;;3.40;3.10;;;;;;;22.52;53.56;96167.53;4908690;29;20207;-84
2022/08/08 07:50:57;;;;;;;3.53;3.22;;;;;;;22.53;52.76;96169.13;4908502;29;20262;-84
2022/08/08 07:53:31;;;;;;;3.33;3.03;;;;;;;22.55;52.74;96169.69;4908638;29;20234;-84
2022/08/08 07:56:01;;;;;;;3.53;3.20;;;;;;;22.50;52.22;96174.88;4907110;29;20234;-84
2022/08/08 07:58:32;;;;;;;4.80;3.13;;;;;;;22.55;52.83;96173.13;4908469;29;20207;-84
2022/08/08 08:01:04;;;;;;;4.57;2.90;;;;;;;22.61;52.63;96171.38;4907948;29;20207;-84
2022/08/08 08:03:41;;;;;;;3.55;3.10;;;;;;;22.63;52.09;96177.19;4908081;29;20323;-84
2022/08/08 08:06:15;;;;;;;3.17;2.97;;;;;;;22.75;51.71;96178.69;4907437;29;20210;-83
2022/08/08 08:08:47;;;;;;;3.55;2.53;;;;;;;23.02;51.08;96178.09;4907382;29;20222;-84
2022/08/08 08:11:15;;;;;;;4.45;2.95;;;;;;;23.03;50.25;96171.81;4906886;29;20290;-84
2022/08/08 08:13:51;;;;;;;2.47;2.28;;;;;;;23.20;50.10;96177.03;4908535;29;20687;-83
2022/08/08 08:16:22;;;;;;;3.25;2.60;;;;;;;23.26;49.72;96170.84;4907165;29;20238;-83
2022/08/08 08:18:53;;;;;;;3.05;2.75;;;;;;;23.48;49.59;96176.09;4908738;29;20231;-84
2022/08/08 08:21:22;;;;;;;2.72;2.53;;;;;;;23.53;49.38;96176.19;4907850;29;20202;-83
2022/08/08 08:23:49;;;;;;;3.35;2.67;;;;;;;23.69;49.57;96172.72;4907081;29;20263;-84
2022/08/08 08:26:17;;;;;;;2.60;2.40;;;;;;;23.83;50.06;96171.34;4907225;29;20207;-84
2022/08/08 08:28:43;;;;;;;2.58;2.38;;;;;;;23.84;48.29;96167.66;4906775;29;20238;-84
2022/08/08 08:31:10;;;;;;;2.80;2.60;;;;;;;23.71;48.28;96176.69;4906642;29;20233;-83
2022/08/08 08:33:37;;;;;;;2.83;2.33;;;;;;;23.69;48.04;96176.16;4906084;29;20262;-83
2022/08/08 08:36:06;;;;;;;2.42;2.17;;;;;;;23.67;48.23;96177.44;4907631;29;20222;-83
2022/08/08 08:38:34;;;;;;;4.90;4.05;;;;;;;23.65;48.77;96185.59;4907260;29;20243;-84
2022/08/08 08:41:02;;;;;;;2.83;2.58;;;;;;;23.80;48.48;96181.53;4906614;29;20227;-83
2022/08/08 08:43:29;;;;;;;2.35;2.25;;;;;;;23.84;48.47;96172.13;4905406;29;20231;-83
2022/08/08 08:45:56;;;;;;;2.88;2.40;;;;;;;23.69;48.63;96180.63;4903632;29;20211;-83
2022/08/08 08:48:23;;;;;;;2.30;2.10;;;;;;;23.81;48.66;96178.69;4905759;29;20239;-83
2022/08/08 08:50:51;;;;;;;3.33;2.40;;;;;;;23.75;48.09;96183.06;4907965;29;20286;-83
2022/08/08 08:53:19;;;;;;;4.82;3.08;;;;;;;23.74;48.81;96180.69;4909515;29;20238;-84
2022/08/08 08:55:48;;;;;;;2.70;2.50;;;;;;;23.87;48.26;96175.03;4910742;29;20382;-83
2022/08/08 08:58:23;;;;;;;2.45;2.25;;;;;;;23.91;48.23;96177.97;4911506;29;20207;-83
2022/08/08 09:00:51;;;;;;;4.32;2.75;;;;;;;24.14;48.34;96184.81;4910750;29;20357;-84
2022/08/08 09:03:20;;;;;;;2.72;2.53;;;;;;;24.26;47.66;96188.91;4911825;29;20263;-83
2022/08/08 09:05:48;;;;;;;2.63;2.35;;;;;;;24.50;47.48;96180.72;4912800;29;20207;-84
2022/08/08 09:08:16;;;;;;;2.42;2.22;;;;;;;24.72;46.95;96189.38;4912652;29;20247;-84
2022/08/08 09:10:43;;;;;;;2.72;2.30;;;;;;;24.77;46.12;96182.31;4911471;29;20488;-84
2022/08/08 09:13:13;;;;;;;2.35;2.00;;;;;;;24.98;46.85;96177.22;4910057;29;20235;-83
2022/08/08 09:15:40;;;;;;;2.42;2.20;;;;;;;24.91;45.97;96184.50;4911122;29;20207;-84
2022/08/08 09:18:07;;;;;;;3.10;2.30;;;;;;;24.85;46.01;96177.59;4911708;29;20273;-83
2022/08/08 09:20:36;;;;;;;2.50;2.30;;;;;;;24.92;45.95;96180.81;4910666;29;20242;-84
2022/08/08 09:23:03;;;;;;;2.53;2.28;;;;;;;24.59;43.94;96180.03;4910444;29;20687;-84
2022/08/08 09:25:29;;;;;;;2.25;2.10;;;;;;;24.60;43.74;96181.63;4910732;29;20207;-83
2022/08/08 09:27:57;;;;;;;2.42;2.22;;;;;;;24.70;44.72;96179.06;4909967;29;20239;-83
2022/08/08 09:30:26;;;;;;;2.25;2.08;;;;;;;24.87;44.46;96186.84;4909529;29;20235;-84
2022/08/08 09:32:54;;;;;;;3.13;2.30;;;;;;;24.78;45.28;96183.09;4909617;29;20253;-83
2022/08/08 09:35:24;;;;;;;2.47;2.28;;;;;;;24.89;44.05;96183.97;4908547;29;20203;-83
2022/08/08 09:37:53;;;;;;;3.10;2.08;;;;;;;25.04;42.94;96182.25;4910986;29;20255;-84
2022/08/08 09:40:21;;;;;;;1.98;1.88;;;;;;;25.18;43.72;96180.00;4908845;29;20227;-83
2022/08/08 09:42:50;;;;;;;2.80;1.90;;;;;;;25.49;43.20;96183.59;4910013;29;20230;-83
2022/08/08 09:45:20;;;;;;;2.20;2.00;;;;;;;25.73;42.63;96184.81;4910143;29;20238;-82
2022/08/08 09:47:49;;;;;;;3.78;1.80;;;;;;;25.92;42.05;96184.34;4910783;29;20230;-83
2022/08/08 09:50:17;;;;;;;2.13;1.92;;;;;;;25.89;41.23;96180.38;4909452;29;20223;-83
2022/08/08 09:52:48;;;;;;;2.00;1.90;;;;;;;25.42;39.94;96183.03;4907808;29;20259;-83
2022/08/08 09:55:14;;;;;;;2.05;1.85;;;;;;;24.93;41.82;96187.69;4908102;29;20290;-84
2022/08/08 09:57:42;;;;;;;2.20;2.00;;;;;;;24.63;43.40;96181.09;4908941;29;20628;-83
2022/08/08 10:00:10;;;;;;;3.58;1.90;;;;;;;24.50;43.04;96178.09;4907754;29;20283;-83
2022/08/08 10:02:39;;;;;;;3.63;2.35;;;;;;;24.34;43.10;96183.22;4907251;29;20239;-83
2022/08/08 10:05:11;;;;;;;3.47;2.03;;;;;;;24.55;42.55;96173.69;4906536;29;20207;-83
2022/08/08 10:07:44;;;;;;;2.40;2.20;;;;;;;25.05;42.96;96181.22;4908551;29;20599;-83
2022/08/08 10:10:10;;;;;;;3.58;2.05;;;;;;;25.41;42.31;96170.88;4905532;29;20231;-82
2022/08/08 10:12:38;;;;;;;2.95;1.95;;;;;;;25.66;41.51;96163.13;4906618;29;20301;-84
2022/08/08 10:15:06;;;;;;;2.53;2.33;;;;;;;25.62;41.11;96174.41;4905477;29;20293;-84
2022/08/08 10:17:43;;;;;;;2.20;1.98;;;;;;;25.57;41.61;96167.31;4905271;29;20262;-83
2022/08/08 10:20:12;;;;;;;2.28;2.08;;;;;;;25.49;41.18;96165.13;4900640;29;20298;-86
2022/08/08 10:22:47;;;;;;;3.70;2.05;;;;;;;25.47;41.63;96169.88;4904664;29;20231;-86
2022/08/08 10:25:20;;;;;;;2.25;2.00;;;;;;;25.77;42.04;96171.91;4906541;29;20214;-86
2022/08/08 10:27:50;;;;;;;2.50;2.30;;;;;;;26.16;41.57;96169.66;4906214;29;20206;-86
2022/08/08 10:30:24;;;;;;;2.22;2.03;;;;;;;26.26;40.88;96167.03;4904360;29;20219;-86
2022/08/08 10:32:53;;;;;;;2.67;2.13;;;;;;;26.26;40.97;96168.88;4902251;29;20237;-86
2022/08/08 10:35:23;;;;;;;2.10;2.00;;;;;;;26.34;40.21;96165.75;4906321;29;20211;-85
2022/08/08 10:37:52;;;;;;;4.50;4.15;;;;;;;26.47;40.47;96162.59;4904569;29;20218;-86
2022/08/08 10:40:19;;;;;;;3.47;3.15;;;;;;;26.58;39.54;96168.66;4919518;29;20225;-85
2022/08/08 10:42:49;;;;;;;4.50;2.17;;;;;;;26.64;39.32;96167.63;4924202;29;20293;-84
2022/08/08 10:45:16;;;;;;;2.47;2.28;;;;;;;26.70;39.21;96162.09;4925650;29;20672;-85
2022/08/08 10:47:44;;;;;;;2.25;2.15;;;;;;;26.50;40.59;96170.00;4927331;29;20229;-85
2022/08/08 10:50:10;;;;;;;5.93;2.55;;;;;;;26.45;40.20;96170.00;4928386;29;20226;-84
2022/08/08 10:52:40;;;;;;;3.97;2.60;;;;;;;26.49;41.10;96176.34;4922771;29;20246;-85
2022/08/08 10:55:08;;;;;;;4.93;2.40;;;;;;;26.52;40.05;96175.03;4893647;29;20211;-84
2022/08/08 10:57:41;;;;;;;2.95;2.20;;;;;;;26.63;39.57;96164.19;4900374;29;20199;-85
2022/08/08 11:00:11;;;;;;;2.20;2.00;;;;;;;26.60;38.86;96156.78;4898666;29;20674;-85
2022/08/08 11:02:38;;;;;;;3.17;2.40;;;;;;;26.39;40.23;96158.63;4897477;29;20234;-85
2022/08/08 11:05:08;;;;;;;3.28;2.35;;;;;;;26.46;39.73;96161.00;4897742;29;20230;-85
2022/08/08 11:07:36;;;;;;;4.43;2.55;;;;;;;26.27;39.97;96159.91;4901340;29;20215;-85
2022/08/08 11:10:07;;;;;;;3.03;2.72;;;;;;;26.35;40.24;96160.22;4899553;29;20566;-86
2022/08/08 11:12:34;;;;;;;3.90;2.42;;;;;;;26.49;40.90;96166.56;4897807;29;20234;-85
2022/08/08 11:15:01;;;;;;;2.53;2.30;;;;;;;26.76;40.29;96165.50;4900661;29;20206;-85
2022/08/08 11:17:29;;;;;;;2.30;2.17;;;;;;;26.99;40.01;96164.22;4899019;29;20747;-85
2022/08/08 11:19:56;;;;;;;4.00;2.20;;;;;;;26.84;39.08;96159.72;4900244;29;20226;-85
2022/08/08 11:22:25;;;;;;;4.20;2.33;;;;;;;26.19;40.59;96153.28;4896483;29;20211;-85
2022/08/08 11:24:55;;;;;;;2.20;2.10;;;;;;;25.81;41.37;96159.75;4897477;29;20754;-85
2022/08/08 11:27:25;;;;;;;16.15;14.70;;;;;;;25.52;41.68;96155.94;4898311;29;20211;-85
2022/08/08 11:29:57;;;;;;;5.35;4.88;;;;;;;25.84;41.83;96153.97;4897965;29;20223;-85
2022/08/08 11:32:24;;;;;;;4.65;3.25;;;;;;;26.08;40.66;96154.31;4900908;29;20230;-86
2022/08/08 11:34:55;;;;;;;2.63;2.42;;;;;;;25.93;41.33;96146.34;4901291;29;20213;-85
2022/08/08 11:37:22;;;;;;;3.08;2.60;;;;;;;26.17;40.55;96147.44;4902792;29;20259;-85
2022/08/08 11:39:50;;;;;;;3.17;2.60;;;;;;;26.40;40.75;96154.91;4897649;29;20274;-85
2022/08/08 11:42:17;;;;;;;3.10;2.40;;;;;;;26.22;40.57;96154.59;4898098;29;20210;-85
2022/08/08 11:44:46;;;;;;;2.95;2.50;;;;;;;25.81;40.87;96152.63;4901221;29;20255;-85
2022/08/08 11:47:13;;;;;;;2.58;2.38;;;;;;;25.31;41.44;96149.75;4899566;29;20239;-84
2022/08/08 11:49:41;;;;;;;3.80;2.03;;;;;;;25.47;40.95;96144.28;4898697;29;20271;-85
2022/08/08 11:52:08;;;;;;;2.63;2.42;;;;;;;25.72;40.40;96151.56;4897901;29;20660;-85
2022/08/08 11:54:35;;;;;;;2.58;2.35;;;;;;;25.98;40.68;96138.47;4898464;29;20238;-84
2022/08/08 11:57:10;;;;;;;2.30;2.10;;;;;;;26.39;39.88;96141.97;4898576;29;20215;-85
2022/08/08 11:59:44;;;;;;;3.08;2.28;;;;;;;26.64;39.89;96144.66;4901731;29;20305;-85
2022/08/08 12:02:11;;;;;;;2.40;2.20;;;;;;;26.71;39.13;96136.47;4900869;29;20884;-85